createdAt,value
2023-01-13T00:01:16.410Z,9.96
2023-01-13T00:03:44.574Z,9.86
2023-01-13T00:06:14.664Z,9.88
2023-01-13T00:08:42.720Z,9.87
2023-01-13T00:11:10.831Z,9.93
2023-01-13T00:13:39.838Z,9.82
2023-01-13T00:16:09.616Z,9.89
2023-01-13T00:18:39.027Z,9.87
2023-01-13T00:21:08.881Z,9.85
2023-01-13T00:23:36.967Z,9.84
2023-01-13T00:26:06.847Z,9.81
2023-01-13T00:28:34.906Z,9.81
2023-01-13T00:31:06.836Z,9.85
2023-01-13T00:33:34.930Z,9.81
2023-01-13T00:36:05.858Z,9.92
2023-01-13T00:38:34.878Z,9.86
2023-01-13T00:41:05.374Z,9.91
2023-01-13T00:43:33.894Z,9.86
2023-01-13T00:46:01.964Z,9.88
2023-01-13T00:48:30.256Z,9.85
2023-01-13T00:50:59.763Z,9.87
2023-01-13T00:53:29.643Z,9.78
2023-01-13T00:56:01.301Z,9.79
2023-01-13T00:58:29.365Z,9.80
2023-01-13T01:01:01.184Z,9.84
2023-01-13T01:03:29.397Z,9.85
2023-01-13T01:05:57.608Z,9.83
2023-01-13T01:08:25.754Z,9.78
2023-01-13T01:11:03.572Z,9.82
2023-01-13T01:13:31.555Z,9.87
2023-01-13T01:15:59.875Z,9.87
2023-01-13T01:18:27.881Z,9.94
2023-01-13T01:20:55.825Z,9.96
2023-01-13T01:23:23.707Z,10.03
2023-01-13T01:25:51.611Z,10.08
2023-01-13T01:28:21.183Z,10.10
2023-01-13T01:30:49.188Z,10.13
2023-01-13T01:33:17.162Z,10.16
2023-01-13T01:35:45.117Z,10.24
2023-01-13T01:38:13.000Z,10.23
2023-01-13T01:40:40.971Z,10.26
2023-01-13T01:43:33.112Z,10.24
2023-01-13T01:46:02.992Z,10.22
2023-01-13T01:48:37.321Z,10.23
2023-01-13T01:51:05.681Z,10.26
2023-01-13T01:53:34.044Z,10.27
2023-01-13T01:56:01.981Z,10.30
2023-01-13T01:58:32.478Z,10.35
2023-01-13T02:01:02.060Z,10.29
2023-01-13T02:03:30.991Z,10.32
2023-01-13T02:05:58.993Z,10.31
2023-01-13T02:08:26.990Z,10.31
2023-01-13T02:10:55.209Z,10.28
2023-01-13T02:13:34.442Z,10.24
2023-01-13T02:16:10.008Z,10.25
2023-01-13T02:18:47.267Z,10.29
2023-01-13T02:21:29.553Z,10.24
2023-01-13T02:24:43.104Z,10.16
2023-01-13T02:27:30.951Z,10.04
2023-01-13T02:30:28.239Z,9.76
2023-01-13T02:33:04.647Z,9.49
2023-01-13T02:35:39.095Z,9.34
2023-01-13T02:38:07.382Z,9.16
2023-01-13T02:40:38.100Z,9.05
2023-01-13T02:43:29.229Z,8.96
2023-01-13T02:46:00.623Z,8.94
2023-01-13T02:48:31.129Z,8.95
2023-01-13T02:51:02.334Z,8.91
2023-01-13T02:53:35.171Z,8.86
2023-01-13T02:56:04.827Z,8.91
2023-01-13T02:58:33.829Z,8.95
2023-01-13T03:01:03.321Z,8.87
2023-01-13T03:03:33.060Z,8.82
2023-01-13T03:06:15.398Z,8.87
2023-01-13T03:08:46.680Z,8.85
2023-01-13T03:11:16.068Z,8.87
2023-01-13T03:14:10.824Z,8.83
2023-01-13T03:17:01.854Z,8.83
2023-01-13T03:19:36.685Z,8.68
2023-01-13T03:22:13.580Z,8.75
2023-01-13T03:24:44.455Z,8.74
2023-01-13T03:27:15.370Z,8.76
2023-01-13T03:29:47.762Z,8.74
2023-01-13T03:32:21.637Z,8.79
2023-01-13T03:34:52.322Z,8.84
2023-01-13T03:37:22.577Z,8.87
2023-01-13T03:39:54.187Z,8.82
2023-01-13T03:42:24.468Z,8.80
2023-01-13T03:44:55.893Z,8.83
2023-01-13T03:47:28.920Z,8.68
2023-01-13T03:49:57.193Z,8.64
2023-01-13T03:52:27.349Z,8.55
2023-01-13T03:54:59.132Z,8.59
2023-01-13T03:57:31.303Z,8.52
2023-01-13T04:00:02.151Z,8.57
2023-01-13T04:02:48.399Z,8.62
2023-01-13T04:05:16.764Z,8.70
2023-01-13T04:07:50.855Z,8.69
2023-01-13T04:10:21.609Z,8.74
2023-01-13T04:13:02.487Z,8.73
2023-01-13T04:15:32.963Z,8.71
2023-01-13T04:18:11.485Z,8.76
2023-01-13T04:20:40.659Z,8.70
2023-01-13T04:23:08.836Z,8.72
2023-01-13T04:25:37.269Z,8.67
2023-01-13T04:28:05.535Z,8.64
2023-01-13T04:30:33.452Z,8.59
2023-01-13T04:33:01.371Z,8.61
2023-01-13T04:35:30.779Z,8.55
2023-01-13T04:37:58.723Z,8.45
2023-01-13T04:40:26.561Z,8.50
2023-01-13T04:42:54.420Z,8.36
2023-01-13T04:45:22.293Z,8.38
2023-01-13T04:47:50.174Z,8.40
2023-01-13T04:50:19.814Z,8.40
2023-01-13T04:52:49.581Z,8.30
2023-01-13T04:55:18.309Z,8.26
2023-01-13T04:57:46.332Z,8.28
2023-01-13T05:00:16.273Z,8.32
2023-01-13T05:02:44.225Z,8.32
2023-01-13T05:05:12.193Z,8.26
2023-01-13T05:07:40.122Z,8.21
2023-01-13T05:10:10.943Z,8.20
2023-01-13T05:12:56.364Z,8.24
2023-01-13T05:15:50.111Z,8.18
2023-01-13T05:18:19.063Z,8.09
2023-01-13T05:20:47.084Z,8.03
2023-01-13T05:23:32.393Z,7.99
2023-01-13T05:26:01.824Z,8.04
2023-01-13T05:28:32.634Z,8.08
2023-01-13T05:31:01.095Z,8.00
2023-01-13T05:33:29.006Z,8.04
2023-01-13T05:35:56.883Z,7.95
2023-01-13T05:38:24.717Z,7.86
2023-01-13T05:41:10.125Z,7.89
2023-01-13T05:43:39.714Z,7.92
2023-01-13T05:46:10.128Z,7.90
2023-01-13T05:48:39.852Z,7.85
2023-01-13T05:51:17.887Z,7.83
2023-01-13T05:53:45.865Z,7.74
2023-01-13T05:56:14.848Z,7.80
2023-01-13T05:58:44.688Z,7.80
2023-01-13T06:01:12.635Z,7.76
2023-01-13T06:03:40.596Z,7.78
2023-01-13T06:06:09.064Z,7.69
2023-01-13T06:08:39.599Z,7.64
2023-01-13T06:11:07.810Z,7.65
2023-01-13T06:13:35.688Z,7.67
2023-01-13T06:16:05.367Z,7.67
2023-01-13T06:18:33.327Z,7.57
2023-01-13T06:21:01.194Z,7.60
2023-01-13T06:23:29.565Z,7.51
2023-01-13T06:26:01.907Z,7.50
2023-01-13T06:28:29.793Z,7.44
2023-01-13T06:31:00.909Z,7.53
2023-01-13T06:33:33.099Z,7.47
2023-01-13T06:36:03.317Z,7.42
2023-01-13T06:38:35.256Z,7.28
2023-01-13T06:41:03.432Z,7.24
2023-01-13T06:43:30.390Z,7.29
2023-01-13T06:45:58.177Z,7.35
2023-01-13T06:48:28.982Z,7.31
2023-01-13T06:50:58.619Z,7.32
2023-01-13T06:53:26.498Z,7.23
2023-01-13T06:55:54.383Z,7.27
2023-01-13T06:58:22.221Z,7.24
2023-01-13T07:00:51.408Z,7.23
2023-01-13T07:03:20.060Z,7.20
2023-01-13T07:05:53.465Z,7.19
2023-01-13T07:08:23.068Z,7.19
2023-01-13T07:10:51.190Z,7.15
2023-01-13T07:13:44.942Z,7.15
2023-01-13T07:16:12.839Z,7.07
2023-01-13T07:18:40.921Z,7.15
2023-01-13T07:21:10.565Z,7.10
2023-01-13T07:23:41.153Z,7.07
2023-01-13T07:26:09.745Z,7.01
2023-01-13T07:28:38.273Z,6.99
2023-01-13T07:31:06.834Z,6.99
2023-01-13T07:33:34.746Z,7.05
2023-01-13T07:36:04.092Z,7.04
2023-01-13T07:38:32.954Z,7.01
2023-01-13T07:41:23.879Z,7.04
2023-01-13T07:43:51.802Z,6.96
2023-01-13T07:46:20.090Z,7.01
2023-01-13T07:48:48.674Z,6.96
2023-01-13T07:51:16.695Z,6.93
2023-01-13T07:53:44.648Z,6.92
2023-01-13T07:56:13.909Z,6.89
2023-01-13T07:58:41.749Z,6.92
2023-01-13T08:01:10.330Z,6.94
2023-01-13T08:03:38.352Z,6.94
2023-01-13T08:06:06.614Z,6.96
2023-01-13T08:08:34.636Z,6.98
2023-01-13T08:11:03.006Z,6.96
2023-01-13T08:13:32.595Z,7.02
2023-01-13T08:16:02.721Z,7.03
2023-01-13T08:18:32.070Z,7.03
2023-01-13T08:21:02.999Z,7.07
2023-01-13T08:23:30.920Z,7.05
2023-01-13T08:26:01.458Z,7.16
2023-01-13T08:28:29.313Z,7.08
2023-01-13T08:31:01.971Z,7.14
2023-01-13T08:33:30.523Z,7.12
2023-01-13T08:35:58.445Z,7.12
2023-01-13T08:38:26.766Z,7.10
2023-01-13T08:40:54.642Z,7.06
2023-01-13T08:43:22.520Z,7.13
2023-01-13T08:45:57.420Z,7.10
2023-01-13T08:48:28.547Z,7.06
2023-01-13T08:51:02.892Z,7.07
2023-01-13T08:53:30.993Z,7.15
2023-01-13T08:55:58.866Z,7.18
2023-01-13T08:58:26.741Z,7.33
2023-01-13T09:00:54.698Z,7.39
2023-01-13T09:03:22.657Z,7.34
2023-01-13T09:05:51.970Z,7.40
2023-01-13T09:08:20.294Z,7.47
2023-01-13T09:10:48.320Z,7.42
2023-01-13T09:13:15.724Z,7.43
2023-01-13T09:15:46.244Z,7.43
2023-01-13T09:18:14.613Z,7.37
2023-01-13T09:20:42.507Z,7.48
2023-01-13T09:23:11.859Z,7.39
2023-01-13T09:25:40.065Z,7.51
2023-01-13T09:28:08.864Z,7.58
2023-01-13T09:30:37.993Z,7.71
2023-01-13T09:33:23.383Z,7.72
2023-01-13T09:35:51.346Z,7.71
2023-01-13T09:38:20.593Z,7.86
2023-01-13T09:40:49.655Z,7.82
2023-01-13T09:43:38.855Z,7.71
2023-01-13T09:46:34.096Z,7.68
2023-01-13T09:49:03.683Z,7.70
2023-01-13T09:51:35.174Z,7.84
2023-01-13T09:54:07.817Z,7.91
2023-01-13T09:56:35.696Z,8.00
2023-01-13T09:59:03.484Z,8.17
2023-01-13T10:01:35.633Z,8.35
2023-01-13T10:04:05.842Z,8.28
2023-01-13T10:06:36.661Z,8.32
2023-01-13T10:09:06.285Z,8.36
2023-01-13T10:11:56.341Z,8.44
2023-01-13T10:14:27.617Z,8.50
2023-01-13T10:17:07.674Z,8.55
2023-01-13T10:19:39.928Z,8.62
2023-01-13T10:22:29.208Z,8.71
2023-01-13T10:25:18.335Z,8.79
2023-01-13T10:27:49.299Z,8.80
2023-01-13T10:30:23.365Z,8.83
2023-01-13T10:32:54.034Z,8.74
2023-01-13T10:35:56.326Z,8.57
2023-01-13T10:38:26.595Z,8.56
2023-01-13T10:40:58.119Z,8.59
2023-01-13T10:43:26.459Z,8.50
2023-01-13T10:45:59.887Z,8.45
2023-01-13T10:48:36.525Z,8.57
2023-01-13T10:51:19.890Z,8.61
2023-01-13T10:53:52.229Z,8.78
2023-01-13T10:56:22.795Z,8.81
2023-01-13T10:58:50.758Z,8.91
2023-01-13T11:01:26.760Z,8.89
2023-01-13T11:03:55.766Z,8.88
2023-01-13T11:06:26.056Z,9.05
2023-01-13T11:08:58.011Z,9.00
2023-01-13T11:11:33.182Z,8.95
2023-01-13T11:14:21.713Z,9.02
2023-01-13T11:16:54.052Z,9.09
2023-01-13T11:19:23.869Z,9.11
2023-01-13T11:21:55.843Z,9.17
2023-01-13T11:24:29.878Z,9.18
2023-01-13T11:27:03.308Z,9.15
2023-01-13T11:29:37.799Z,9.13
2023-01-13T11:32:11.900Z,9.27
2023-01-13T11:34:41.783Z,9.30
2023-01-13T11:37:13.935Z,9.23
2023-01-13T11:39:50.232Z,9.19
2023-01-13T11:42:24.354Z,9.28
2023-01-13T11:45:02.168Z,9.17
2023-01-13T11:47:30.803Z,9.11
2023-01-13T11:49:58.797Z,9.12
2023-01-13T11:52:34.371Z,9.21
2023-01-13T11:55:11.406Z,9.11
2023-01-13T11:58:00.515Z,9.01
2023-01-13T12:00:34.481Z,9.01
2023-01-13T12:03:22.993Z,9.04
2023-01-13T12:06:02.917Z,9.05
2023-01-13T12:08:47.567Z,9.05
2023-01-13T12:11:19.020Z,9.11
2023-01-13T12:14:08.498Z,9.11
2023-01-13T12:16:38.777Z,9.17
2023-01-13T12:19:33.997Z,9.23
2023-01-13T12:22:11.213Z,9.29
2023-01-13T12:24:44.410Z,9.30
2023-01-13T12:27:16.701Z,9.33
2023-01-13T12:29:47.175Z,9.26
2023-01-13T12:32:20.922Z,9.28
2023-01-13T12:35:09.511Z,9.21
2023-01-13T12:37:42.831Z,9.26
2023-01-13T12:40:23.315Z,9.35
2023-01-13T12:43:13.859Z,9.46
2023-01-13T12:45:43.243Z,9.38
2023-01-13T12:48:49.067Z,9.42
2023-01-13T12:51:23.532Z,9.29
2023-01-13T12:53:51.896Z,9.28
2023-01-13T12:56:44.396Z,9.26
2023-01-13T12:59:51.568Z,9.18
2023-01-13T13:02:29.609Z,9.21
2023-01-13T13:04:58.839Z,9.10
2023-01-13T13:07:34.810Z,9.26
2023-01-13T13:10:04.450Z,9.17
2023-01-13T13:13:13.442Z,9.21
2023-01-13T13:15:41.595Z,9.23
2023-01-13T13:18:28.459Z,9.40
2023-01-13T13:21:04.192Z,9.48
2023-01-13T13:23:49.060Z,9.48
2023-01-13T13:26:22.021Z,9.27
2023-01-13T13:28:58.126Z,9.12
2023-01-13T13:31:36.320Z,8.97
2023-01-13T13:34:16.815Z,9.01
2023-01-13T13:37:11.003Z,8.98
2023-01-13T13:39:59.763Z,8.88
2023-01-13T13:42:49.482Z,8.81
2023-01-13T13:45:39.107Z,8.63
2023-01-13T13:48:22.041Z,8.61
2023-01-13T13:50:56.558Z,8.50
2023-01-13T13:53:27.330Z,8.56
2023-01-13T13:55:59.483Z,8.65
2023-01-13T13:58:28.859Z,8.55
2023-01-13T14:00:57.627Z,8.58
2023-01-13T14:03:27.723Z,8.65
2023-01-13T14:05:59.397Z,8.65
2023-01-13T14:08:28.957Z,8.75
2023-01-13T14:10:57.153Z,8.69
2023-01-13T14:13:26.771Z,8.73
2023-01-13T14:15:58.203Z,8.63
2023-01-13T14:18:27.370Z,8.69
2023-01-13T14:21:00.463Z,8.58
2023-01-13T14:23:29.656Z,8.70
2023-01-13T14:26:03.222Z,8.64
2023-01-13T14:28:33.329Z,8.62
2023-01-13T14:31:01.420Z,8.64
2023-01-13T14:33:35.339Z,8.59
2023-01-13T14:36:14.591Z,8.57
2023-01-13T14:38:43.684Z,8.50
2023-01-13T14:41:25.504Z,8.52
2023-01-13T14:43:57.284Z,8.54
2023-01-13T14:46:25.623Z,8.46
2023-01-13T14:48:55.246Z,8.55
2023-01-13T14:51:26.874Z,8.49
2023-01-13T14:53:55.392Z,8.46
2023-01-13T14:56:40.539Z,8.48
2023-01-13T14:59:37.624Z,8.44
2023-01-13T15:02:47.229Z,8.34
2023-01-13T15:05:33.347Z,8.33
2023-01-13T15:08:06.254Z,8.25
2023-01-13T15:10:38.057Z,8.11
2023-01-13T15:13:07.591Z,8.05
2023-01-13T15:15:37.709Z,7.89
2023-01-13T15:18:11.706Z,7.92
2023-01-13T15:20:40.348Z,7.82
2023-01-13T15:23:09.938Z,7.79
2023-01-13T15:25:39.838Z,7.74
2023-01-13T15:28:08.427Z,7.78
2023-01-13T15:30:36.328Z,7.82
2023-01-13T15:33:04.361Z,7.82
2023-01-13T15:35:32.296Z,7.85
2023-01-13T15:38:00.158Z,7.89
2023-01-13T15:40:33.046Z,7.91
2023-01-13T15:43:18.385Z,7.96
2023-01-13T15:46:04.685Z,7.92
2023-01-13T15:48:32.977Z,7.92
2023-01-13T15:51:01.846Z,7.97
2023-01-13T15:53:30.829Z,7.95
2023-01-13T15:56:00.211Z,7.97
2023-01-13T15:58:29.570Z,8.00
2023-01-13T16:00:57.597Z,8.04
2023-01-13T16:03:25.552Z,7.97
2023-01-13T16:05:53.431Z,7.96
2023-01-13T16:08:23.091Z,8.00
2023-01-13T16:10:51.057Z,7.96
2023-01-13T16:13:20.278Z,7.94
2023-01-13T16:15:50.050Z,7.96
2023-01-13T16:18:19.578Z,8.00
2023-01-13T16:20:47.875Z,8.04
2023-01-13T16:23:15.788Z,7.93
2023-01-13T16:25:47.735Z,7.87
2023-01-13T16:28:22.100Z,7.82
2023-01-13T16:30:50.088Z,7.75
2023-01-13T16:33:18.245Z,7.68
2023-01-13T16:36:10.957Z,7.59
2023-01-13T16:38:34.767Z,7.61
2023-01-13T16:41:02.913Z,7.61
2023-01-13T16:43:32.375Z,7.47
2023-01-13T16:46:01.373Z,7.42
2023-01-13T16:48:29.349Z,7.47
2023-01-13T16:50:57.210Z,7.38
2023-01-13T16:53:25.278Z,7.31
2023-01-13T16:55:53.311Z,7.36
2023-01-13T16:58:21.898Z,7.48
2023-01-13T17:00:52.071Z,7.31
2023-01-13T17:03:21.078Z,7.26
2023-01-13T17:05:49.026Z,7.20
2023-01-13T17:08:18.295Z,7.27
2023-01-13T17:10:46.741Z,7.20
2023-01-13T17:13:16.969Z,7.25
2023-01-13T17:15:45.426Z,7.29
2023-01-13T17:18:14.707Z,7.38
2023-01-13T17:20:42.562Z,7.38
2023-01-13T17:23:10.453Z,7.45
2023-01-13T17:25:38.351Z,7.46
2023-01-13T17:28:06.266Z,7.53
2023-01-13T17:30:34.151Z,7.55
2023-01-13T17:33:02.032Z,7.59
2023-01-13T17:35:31.235Z,7.59
2023-01-13T17:37:59.147Z,7.59
2023-01-13T17:40:27.040Z,7.61
2023-01-13T17:42:54.929Z,7.58
2023-01-13T17:45:22.779Z,7.70
2023-01-13T17:47:50.615Z,7.63
2023-01-13T17:50:19.798Z,7.67
2023-01-13T17:52:49.100Z,7.72
2023-01-13T17:55:19.361Z,7.73
2023-01-13T17:57:47.362Z,7.65
2023-01-13T18:00:16.392Z,7.71
2023-01-13T18:02:44.321Z,7.62
2023-01-13T18:05:12.693Z,7.64
2023-01-13T18:07:40.562Z,7.60
2023-01-13T18:10:11.778Z,7.48
2023-01-13T18:12:39.707Z,7.47
2023-01-13T18:15:08.747Z,7.34
2023-01-13T18:17:36.688Z,7.16
2023-01-13T18:20:22.271Z,7.00
2023-01-13T18:23:07.503Z,6.84
2023-01-13T18:25:54.060Z,6.78
2023-01-13T18:28:21.904Z,6.75
2023-01-13T18:30:49.844Z,6.68
2023-01-13T18:33:17.830Z,6.70
2023-01-13T18:35:45.695Z,6.72
2023-01-13T18:38:14.586Z,6.69
2023-01-13T18:40:45.535Z,6.76
2023-01-13T18:43:12.408Z,6.83
2023-01-13T18:45:40.294Z,6.82
2023-01-13T18:48:08.817Z,6.94
2023-01-13T18:50:36.851Z,6.99
2023-01-13T18:53:04.912Z,6.97
2023-01-13T18:55:32.746Z,7.01
2023-01-13T18:58:02.254Z,7.09
2023-01-13T19:00:36.283Z,7.07
2023-01-13T19:05:34.776Z,7.12
2023-01-13T19:08:02.921Z,7.11
2023-01-13T19:10:32.418Z,7.18
2023-01-13T19:13:02.304Z,7.19
2023-01-13T19:15:30.233Z,7.26
2023-01-13T19:17:58.247Z,7.29
2023-01-13T19:20:26.209Z,7.28
2023-01-13T19:22:54.945Z,7.34
2023-01-13T19:25:22.919Z,7.40
2023-01-13T19:27:50.800Z,7.36
2023-01-13T19:30:20.439Z,7.35
2023-01-13T19:32:48.271Z,7.39
2023-01-13T19:35:18.180Z,7.39
2023-01-13T19:37:46.087Z,7.40
2023-01-13T19:40:14.666Z,7.45
2023-01-13T19:43:01.405Z,7.42
2023-01-13T19:45:33.654Z,7.40
2023-01-13T19:48:05.538Z,7.36
2023-01-13T19:50:37.391Z,7.36
2023-01-13T19:53:05.399Z,7.34
2023-01-13T19:55:33.313Z,7.34
2023-01-13T19:58:01.274Z,7.34
2023-01-13T20:00:30.540Z,7.41
2023-01-13T20:03:03.170Z,7.42
2023-01-13T20:05:31.189Z,7.42
2023-01-13T20:07:59.032Z,7.47
2023-01-13T20:10:26.900Z,7.51
2023-01-13T20:12:54.751Z,7.58
2023-01-13T20:15:22.670Z,7.66
2023-01-13T20:17:52.044Z,7.66
2023-01-13T20:20:20.540Z,7.75
2023-01-13T20:22:49.588Z,7.65
2023-01-13T20:25:18.664Z,7.47
2023-01-13T20:27:47.265Z,7.46
2023-01-13T20:30:15.985Z,7.56
2023-01-13T20:32:44.559Z,7.59
2023-01-13T20:35:13.971Z,7.64
2023-01-13T20:37:43.316Z,7.64
2023-01-13T20:40:14.843Z,7.66
2023-01-13T20:42:44.801Z,7.66
2023-01-13T20:45:17.040Z,7.61
2023-01-13T20:47:46.229Z,7.62
2023-01-13T20:50:16.358Z,7.57
2023-01-13T20:52:44.826Z,7.58
2023-01-13T20:55:12.692Z,7.55
2023-01-13T20:57:40.852Z,7.57
2023-01-13T21:00:10.254Z,7.68
2023-01-13T21:02:39.952Z,7.64
2023-01-13T21:05:08.592Z,7.66
2023-01-13T21:07:37.916Z,7.66
2023-01-13T21:10:06.641Z,7.69
2023-01-13T21:12:51.904Z,7.71
2023-01-13T21:15:21.585Z,7.72
2023-01-13T21:18:08.369Z,7.70
2023-01-13T21:20:37.385Z,7.77
2023-01-13T21:23:06.821Z,7.76
2023-01-13T21:25:37.004Z,7.72
2023-01-13T21:28:07.530Z,7.76
2023-01-13T21:30:36.172Z,7.74
2023-01-13T21:33:06.096Z,7.83
2023-01-13T21:35:34.006Z,7.78
2023-01-13T21:38:01.850Z,7.76
2023-01-13T21:40:31.127Z,7.71
2023-01-13T21:43:16.370Z,7.72
2023-01-13T21:46:01.474Z,7.71
2023-01-13T21:48:29.387Z,7.59
2023-01-13T21:51:00.658Z,7.61
2023-01-13T21:53:28.761Z,7.62
2023-01-13T21:55:57.958Z,7.54
2023-01-13T21:58:25.824Z,7.54
2023-01-13T22:00:54.078Z,7.50
2023-01-13T22:03:22.291Z,7.43
2023-01-13T22:05:54.581Z,7.49
2023-01-13T22:08:22.519Z,7.45
2023-01-13T22:10:58.476Z,7.40
2023-01-13T22:14:00.824Z,7.46
2023-01-13T22:16:29.066Z,7.35
2023-01-13T22:18:56.936Z,7.25
2023-01-13T22:21:24.901Z,7.26
2023-01-13T22:23:52.850Z,7.28
2023-01-13T22:26:20.714Z,7.22
2023-01-13T22:28:50.044Z,7.24
2023-01-13T22:31:19.100Z,7.24
2023-01-13T22:33:49.915Z,7.20
2023-01-13T22:36:17.751Z,7.17
2023-01-13T22:38:45.625Z,7.23
2023-01-13T22:41:13.867Z,7.30
2023-01-13T22:43:41.738Z,7.31
2023-01-13T22:46:12.321Z,7.39
2023-01-13T22:48:41.016Z,7.43
2023-01-13T22:51:10.169Z,7.35
2023-01-13T22:53:39.042Z,7.21
2023-01-13T22:56:07.662Z,7.10
2023-01-13T22:58:35.579Z,7.00
2023-01-13T23:01:13.041Z,6.93
2023-01-13T23:03:41.012Z,6.82
2023-01-13T23:06:09.425Z,6.80
2023-01-13T23:08:37.701Z,6.79
2023-01-13T23:11:07.593Z,6.85
2023-01-13T23:13:35.547Z,6.84
2023-01-13T23:16:04.480Z,6.79
2023-01-13T23:18:33.823Z,6.80
2023-01-13T23:21:04.937Z,6.77
2023-01-13T23:23:33.387Z,6.76
2023-01-13T23:26:01.751Z,6.79
2023-01-13T23:28:30.941Z,6.79
2023-01-13T23:30:58.815Z,6.79
2023-01-13T23:33:26.957Z,6.79
2023-01-13T23:35:59.952Z,6.76
2023-01-13T23:38:27.845Z,6.80
2023-01-13T23:40:55.755Z,6.74
2023-01-13T23:43:24.127Z,6.78
2023-01-13T23:45:51.985Z,6.81
2023-01-13T23:48:19.998Z,6.81
2023-01-13T23:50:59.109Z,6.79
2023-01-13T23:53:33.177Z,6.79
2023-01-13T23:56:01.734Z,6.79
2023-01-13T23:58:30.739Z,6.79
